sensor_id;sensor_type;location;lat;lon;timestamp;P1;durP1;ratioP1;P2;durP2;ratioP2
50976;SDS011;36992;48.200;12.418;2023-03-19T00:02:20;10.80;;;4.75;;
50976;SDS011;36992;48.200;12.418;2023-03-19T00:04:46;10.82;;;5.45;;
50976;SDS011;36992;48.200;12.418;2023-03-19T00:07:13;8.05;;;4.57;;
50976;SDS011;36992;48.200;12.418;2023-03-19T00:09:41;8.95;;;5.28;;
50976;SDS011;36992;48.200;12.418;2023-03-19T00:12:09;10.30;;;5.18;;
50976;SDS011;36992;48.200;12.418;2023-03-19T00:14:36;11.15;;;4.95;;
50976;SDS011;36992;48.200;12.418;2023-03-19T00:17:03;7.85;;;4.25;;
50976;SDS011;36992;48.200;12.418;2023-03-19T00:19:30;10.20;;;4.90;;
50976;SDS011;36992;48.200;12.418;2023-03-19T00:21:56;12.07;;;5.15;;
50976;SDS011;36992;48.200;12.418;2023-03-19T00:24:23;9.20;;;5.13;;
50976;SDS011;36992;48.200;12.418;2023-03-19T00:26:49;11.35;;;5.75;;
50976;SDS011;36992;48.200;12.418;2023-03-19T00:29:17;7.45;;;4.75;;
50976;SDS011;36992;48.200;12.418;2023-03-19T00:31:44;10.70;;;5.60;;
50976;SDS011;36992;48.200;12.418;2023-03-19T00:34:10;9.27;;;4.90;;
50976;SDS011;36992;48.200;12.418;2023-03-19T00:36:37;10.40;;;4.47;;
50976;SDS011;36992;48.200;12.418;2023-03-19T00:39:04;12.00;;;4.85;;
50976;SDS011;36992;48.200;12.418;2023-03-19T00:41:31;11.25;;;5.25;;
50976;SDS011;36992;48.200;12.418;2023-03-19T00:43:57;8.68;;;4.50;;
50976;SDS011;36992;48.200;12.418;2023-03-19T00:46:25;10.20;;;5.10;;
50976;SDS011;36992;48.200;12.418;2023-03-19T00:48:52;8.10;;;4.35;;
50976;SDS011;36992;48.200;12.418;2023-03-19T00:51:20;10.52;;;4.70;;
50976;SDS011;36992;48.200;12.418;2023-03-19T00:53:47;8.85;;;3.67;;
50976;SDS011;36992;48.200;12.418;2023-03-19T00:56:14;9.13;;;4.22;;
50976;SDS011;36992;48.200;12.418;2023-03-19T00:58:42;8.40;;;4.25;;
50976;SDS011;36992;48.200;12.418;2023-03-19T01:01:09;10.05;;;4.68;;
50976;SDS011;36992;48.200;12.418;2023-03-19T01:03:39;9.55;;;4.10;;
50976;SDS011;36992;48.200;12.418;2023-03-19T01:06:06;10.65;;;5.30;;
50976;SDS011;36992;48.200;12.418;2023-03-19T01:08:32;7.43;;;3.80;;
50976;SDS011;36992;48.200;12.418;2023-03-19T01:11:03;9.95;;;4.45;;
50976;SDS011;36992;48.200;12.418;2023-03-19T01:13:30;10.10;;;4.53;;
50976;SDS011;36992;48.200;12.418;2023-03-19T01:15:57;6.85;;;3.80;;
50976;SDS011;36992;48.200;12.418;2023-03-19T01:18:23;8.25;;;3.88;;
50976;SDS011;36992;48.200;12.418;2023-03-19T01:20:51;9.25;;;4.30;;
50976;SDS011;36992;48.200;12.418;2023-03-19T01:23:17;7.40;;;4.13;;
50976;SDS011;36992;48.200;12.418;2023-03-19T01:25:44;7.65;;;3.97;;
50976;SDS011;36992;48.200;12.418;2023-03-19T01:28:11;8.43;;;3.65;;
50976;SDS011;36992;48.200;12.418;2023-03-19T01:30:38;8.23;;;4.38;;
50976;SDS011;36992;48.200;12.418;2023-03-19T01:33:05;11.50;;;5.00;;
50976;SDS011;36992;48.200;12.418;2023-03-19T01:35:31;8.55;;;3.58;;
50976;SDS011;36992;48.200;12.418;2023-03-19T01:37:59;6.18;;;3.42;;
50976;SDS011;36992;48.200;12.418;2023-03-19T01:40:26;7.85;;;3.35;;
50976;SDS011;36992;48.200;12.418;2023-03-19T01:42:53;6.97;;;3.70;;
50976;SDS011;36992;48.200;12.418;2023-03-19T01:45:31;6.50;;;3.55;;
50976;SDS011;36992;48.200;12.418;2023-03-19T01:48:00;7.10;;;4.05;;
50976;SDS011;36992;48.200;12.418;2023-03-19T01:50:27;9.35;;;4.03;;
50976;SDS011;36992;48.200;12.418;2023-03-19T01:53:01;6.88;;;2.90;;
50976;SDS011;36992;48.200;12.418;2023-03-19T01:55:28;7.68;;;3.95;;
50976;SDS011;36992;48.200;12.418;2023-03-19T01:57:55;7.50;;;3.60;;
50976;SDS011;36992;48.200;12.418;2023-03-19T02:00:22;5.95;;;3.30;;
50976;SDS011;36992;48.200;12.418;2023-03-19T02:02:50;6.35;;;3.28;;
50976;SDS011;36992;48.200;12.418;2023-03-19T02:05:19;9.60;;;4.03;;
50976;SDS011;36992;48.200;12.418;2023-03-19T02:07:49;6.43;;;3.25;;
50976;SDS011;36992;48.200;12.418;2023-03-19T02:10:19;5.93;;;2.88;;
50976;SDS011;36992;48.200;12.418;2023-03-19T02:12:47;7.35;;;3.80;;
50976;SDS011;36992;48.200;12.418;2023-03-19T02:15:14;7.22;;;3.28;;
50976;SDS011;36992;48.200;12.418;2023-03-19T02:17:41;5.97;;;3.25;;
50976;SDS011;36992;48.200;12.418;2023-03-19T02:20:10;6.68;;;3.50;;
50976;SDS011;36992;48.200;12.418;2023-03-19T02:22:45;5.55;;;3.30;;
50976;SDS011;36992;48.200;12.418;2023-03-19T02:25:18;6.68;;;3.67;;
50976;SDS011;36992;48.200;12.418;2023-03-19T02:30:22;6.47;;;2.78;;
50976;SDS011;36992;48.200;12.418;2023-03-19T02:32:51;5.03;;;2.30;;
50976;SDS011;36992;48.200;12.418;2023-03-19T02:35:17;7.78;;;2.67;;
50976;SDS011;36992;48.200;12.418;2023-03-19T02:37:44;5.13;;;2.60;;
50976;SDS011;36992;48.200;12.418;2023-03-19T02:40:11;7.40;;;2.85;;
50976;SDS011;36992;48.200;12.418;2023-03-19T02:42:42;6.43;;;3.20;;
50976;SDS011;36992;48.200;12.418;2023-03-19T02:45:10;5.10;;;2.40;;
50976;SDS011;36992;48.200;12.418;2023-03-19T02:47:38;5.38;;;2.90;;
50976;SDS011;36992;48.200;12.418;2023-03-19T02:50:05;6.28;;;2.40;;
50976;SDS011;36992;48.200;12.418;2023-03-19T02:52:32;5.63;;;2.72;;
50976;SDS011;36992;48.200;12.418;2023-03-19T02:54:59;7.35;;;4.05;;
50976;SDS011;36992;48.200;12.418;2023-03-19T02:57:26;5.32;;;2.95;;
50976;SDS011;36992;48.200;12.418;2023-03-19T02:59:52;7.07;;;3.17;;
50976;SDS011;36992;48.200;12.418;2023-03-19T03:02:20;5.13;;;3.03;;
50976;SDS011;36992;48.200;12.418;2023-03-19T03:04:47;5.10;;;2.70;;
50976;SDS011;36992;48.200;12.418;2023-03-19T03:07:13;6.13;;;3.25;;
50976;SDS011;36992;48.200;12.418;2023-03-19T03:09:40;5.43;;;2.80;;
50976;SDS011;36992;48.200;12.418;2023-03-19T03:12:06;5.55;;;2.72;;
50976;SDS011;36992;48.200;12.418;2023-03-19T03:14:34;5.50;;;2.28;;
50976;SDS011;36992;48.200;12.418;2023-03-19T03:17:00;7.90;;;4.20;;
50976;SDS011;36992;48.200;12.418;2023-03-19T03:19:28;5.43;;;3.17;;
50976;SDS011;36992;48.200;12.418;2023-03-19T03:21:54;7.03;;;4.15;;
50976;SDS011;36992;48.200;12.418;2023-03-19T03:24:21;5.72;;;3.00;;
50976;SDS011;36992;48.200;12.418;2023-03-19T03:26:48;5.80;;;3.22;;
50976;SDS011;36992;48.200;12.418;2023-03-19T03:29:14;5.68;;;2.95;;
50976;SDS011;36992;48.200;12.418;2023-03-19T03:31:41;6.38;;;3.03;;
50976;SDS011;36992;48.200;12.418;2023-03-19T03:34:07;5.63;;;3.28;;
50976;SDS011;36992;48.200;12.418;2023-03-19T03:36:35;4.68;;;2.35;;
50976;SDS011;36992;48.200;12.418;2023-03-19T03:39:02;6.22;;;3.17;;
50976;SDS011;36992;48.200;12.418;2023-03-19T03:41:29;4.43;;;2.50;;
50976;SDS011;36992;48.200;12.418;2023-03-19T03:43:55;5.30;;;2.85;;
50976;SDS011;36992;48.200;12.418;2023-03-19T03:46:22;4.80;;;2.30;;
50976;SDS011;36992;48.200;12.418;2023-03-19T03:48:49;4.72;;;2.17;;
50976;SDS011;36992;48.200;12.418;2023-03-19T03:51:16;4.75;;;2.50;;
50976;SDS011;36992;48.200;12.418;2023-03-19T03:53:44;5.38;;;2.80;;
50976;SDS011;36992;48.200;12.418;2023-03-19T03:56:10;5.20;;;2.42;;
50976;SDS011;36992;48.200;12.418;2023-03-19T03:58:37;3.75;;;2.20;;
50976;SDS011;36992;48.200;12.418;2023-03-19T04:01:03;8.38;;;2.90;;
50976;SDS011;36992;48.200;12.418;2023-03-19T04:03:31;7.05;;;3.30;;
50976;SDS011;36992;48.200;12.418;2023-03-19T04:05:58;4.63;;;2.65;;
50976;SDS011;36992;48.200;12.418;2023-03-19T04:08:24;5.40;;;3.15;;
50976;SDS011;36992;48.200;12.418;2023-03-19T04:10:52;5.65;;;2.65;;
50976;SDS011;36992;48.200;12.418;2023-03-19T04:13:19;4.97;;;2.63;;
50976;SDS011;36992;48.200;12.418;2023-03-19T04:15:45;6.50;;;2.78;;
50976;SDS011;36992;48.200;12.418;2023-03-19T04:18:12;6.85;;;2.70;;
50976;SDS011;36992;48.200;12.418;2023-03-19T04:20:39;5.28;;;2.40;;
50976;SDS011;36992;48.200;12.418;2023-03-19T04:23:07;5.35;;;2.53;;
50976;SDS011;36992;48.200;12.418;2023-03-19T04:25:33;4.65;;;2.42;;
50976;SDS011;36992;48.200;12.418;2023-03-19T04:28:01;3.60;;;2.22;;
50976;SDS011;36992;48.200;12.418;2023-03-19T04:30:27;4.72;;;2.28;;
50976;SDS011;36992;48.200;12.418;2023-03-19T04:32:54;4.20;;;2.40;;
50976;SDS011;36992;48.200;12.418;2023-03-19T04:35:21;4.68;;;2.50;;
50976;SDS011;36992;48.200;12.418;2023-03-19T04:37:47;5.65;;;2.22;;
50976;SDS011;36992;48.200;12.418;2023-03-19T04:40:14;3.63;;;2.25;;
50976;SDS011;36992;48.200;12.418;2023-03-19T04:42:42;5.18;;;2.20;;
50976;SDS011;36992;48.200;12.418;2023-03-19T04:45:11;5.15;;;2.40;;
50976;SDS011;36992;48.200;12.418;2023-03-19T04:47:37;5.20;;;2.25;;
50976;SDS011;36992;48.200;12.418;2023-03-19T04:50:05;4.95;;;3.00;;
50976;SDS011;36992;48.200;12.418;2023-03-19T04:52:33;4.40;;;1.80;;
50976;SDS011;36992;48.200;12.418;2023-03-19T04:55:01;3.78;;;1.77;;
50976;SDS011;36992;48.200;12.418;2023-03-19T04:57:27;7.22;;;2.67;;
50976;SDS011;36992;48.200;12.418;2023-03-19T04:59:54;5.75;;;2.35;;
50976;SDS011;36992;48.200;12.418;2023-03-19T05:02:22;4.28;;;2.50;;
50976;SDS011;36992;48.200;12.418;2023-03-19T05:04:48;6.20;;;2.70;;
50976;SDS011;36992;48.200;12.418;2023-03-19T05:07:15;5.13;;;2.50;;
50976;SDS011;36992;48.200;12.418;2023-03-19T05:09:41;5.13;;;2.35;;
50976;SDS011;36992;48.200;12.418;2023-03-19T05:12:10;4.45;;;2.53;;
50976;SDS011;36992;48.200;12.418;2023-03-19T05:14:37;6.40;;;3.05;;
50976;SDS011;36992;48.200;12.418;2023-03-19T05:17:03;6.20;;;2.67;;
50976;SDS011;36992;48.200;12.418;2023-03-19T05:19:31;5.88;;;2.58;;
50976;SDS011;36992;48.200;12.418;2023-03-19T05:21:58;5.72;;;2.88;;
50976;SDS011;36992;48.200;12.418;2023-03-19T05:24:24;4.72;;;2.38;;
50976;SDS011;36992;48.200;12.418;2023-03-19T05:26:51;5.82;;;2.40;;
50976;SDS011;36992;48.200;12.418;2023-03-19T05:29:17;5.50;;;2.65;;
50976;SDS011;36992;48.200;12.418;2023-03-19T05:31:44;5.10;;;2.10;;
50976;SDS011;36992;48.200;12.418;2023-03-19T05:34:12;4.15;;;2.20;;
50976;SDS011;36992;48.200;12.418;2023-03-19T05:36:39;4.90;;;1.90;;
50976;SDS011;36992;48.200;12.418;2023-03-19T05:39:06;6.68;;;2.92;;
50976;SDS011;36992;48.200;12.418;2023-03-19T05:41:32;4.22;;;2.05;;
50976;SDS011;36992;48.200;12.418;2023-03-19T05:43:59;5.00;;;2.80;;
50976;SDS011;36992;48.200;12.418;2023-03-19T05:46:26;4.20;;;2.05;;
50976;SDS011;36992;48.200;12.418;2023-03-19T05:48:52;4.78;;;2.53;;
50976;SDS011;36992;48.200;12.418;2023-03-19T05:51:19;4.82;;;2.45;;
50976;SDS011;36992;48.200;12.418;2023-03-19T05:53:47;4.40;;;2.30;;
50976;SDS011;36992;48.200;12.418;2023-03-19T05:56:13;4.68;;;2.10;;
50976;SDS011;36992;48.200;12.418;2023-03-19T05:58:40;4.70;;;2.35;;
50976;SDS011;36992;48.200;12.418;2023-03-19T06:01:06;4.70;;;3.08;;
50976;SDS011;36992;48.200;12.418;2023-03-19T06:03:32;6.82;;;3.10;;
50976;SDS011;36992;48.200;12.418;2023-03-19T06:05:59;6.00;;;3.42;;
50976;SDS011;36992;48.200;12.418;2023-03-19T06:08:25;4.40;;;2.33;;
50976;SDS011;36992;48.200;12.418;2023-03-19T06:10:53;6.60;;;2.55;;
50976;SDS011;36992;48.200;12.418;2023-03-19T06:13:20;6.65;;;3.40;;
50976;SDS011;36992;48.200;12.418;2023-03-19T06:15:47;8.07;;;2.63;;
50976;SDS011;36992;48.200;12.418;2023-03-19T06:18:14;6.55;;;3.35;;
50976;SDS011;36992;48.200;12.418;2023-03-19T06:20:41;7.03;;;3.90;;
50976;SDS011;36992;48.200;12.418;2023-03-19T06:23:07;5.75;;;2.80;;
50976;SDS011;36992;48.200;12.418;2023-03-19T06:25:34;5.45;;;2.40;;
50976;SDS011;36992;48.200;12.418;2023-03-19T06:28:02;5.30;;;2.78;;
50976;SDS011;36992;48.200;12.418;2023-03-19T06:30:29;6.43;;;3.33;;
50976;SDS011;36992;48.200;12.418;2023-03-19T06:32:56;5.78;;;2.53;;
50976;SDS011;36992;48.200;12.418;2023-03-19T06:35:22;10.80;;;3.25;;
50976;SDS011;36992;48.200;12.418;2023-03-19T06:37:49;7.05;;;2.88;;
50976;SDS011;36992;48.200;12.418;2023-03-19T06:40:16;4.90;;;2.28;;
50976;SDS011;36992;48.200;12.418;2023-03-19T06:42:43;4.72;;;2.55;;
50976;SDS011;36992;48.200;12.418;2023-03-19T06:45:12;6.05;;;2.97;;
50976;SDS011;36992;48.200;12.418;2023-03-19T06:47:40;4.05;;;2.35;;
50976;SDS011;36992;48.200;12.418;2023-03-19T06:50:07;7.43;;;3.30;;
50976;SDS011;36992;48.200;12.418;2023-03-19T06:52:34;7.20;;;3.75;;
50976;SDS011;36992;48.200;12.418;2023-03-19T06:55:01;5.78;;;3.35;;
50976;SDS011;36992;48.200;12.418;2023-03-19T06:57:28;5.50;;;3.00;;
50976;SDS011;36992;48.200;12.418;2023-03-19T06:59:54;7.50;;;3.30;;
50976;SDS011;36992;48.200;12.418;2023-03-19T07:02:22;5.05;;;2.70;;
50976;SDS011;36992;48.200;12.418;2023-03-19T07:04:50;8.20;;;3.80;;
50976;SDS011;36992;48.200;12.418;2023-03-19T07:07:16;6.78;;;3.90;;
50976;SDS011;36992;48.200;12.418;2023-03-19T07:09:43;6.60;;;3.65;;
50976;SDS011;36992;48.200;12.418;2023-03-19T07:12:10;9.27;;;4.00;;
50976;SDS011;36992;48.200;12.418;2023-03-19T07:14:36;9.48;;;4.32;;
50976;SDS011;36992;48.200;12.418;2023-03-19T07:17:03;8.48;;;4.40;;
50976;SDS011;36992;48.200;12.418;2023-03-19T07:19:31;6.47;;;3.67;;
50976;SDS011;36992;48.200;12.418;2023-03-19T07:21:57;5.95;;;3.53;;
50976;SDS011;36992;48.200;12.418;2023-03-19T07:24:24;5.65;;;3.33;;
50976;SDS011;36992;48.200;12.418;2023-03-19T07:26:51;9.23;;;3.83;;
50976;SDS011;36992;48.200;12.418;2023-03-19T07:29:17;5.28;;;2.50;;
50976;SDS011;36992;48.200;12.418;2023-03-19T07:31:44;5.75;;;3.13;;
50976;SDS011;36992;48.200;12.418;2023-03-19T07:34:10;5.90;;;2.90;;
50976;SDS011;36992;48.200;12.418;2023-03-19T07:36:38;6.95;;;2.92;;
50976;SDS011;36992;48.200;12.418;2023-03-19T07:39:05;5.93;;;3.03;;
50976;SDS011;36992;48.200;12.418;2023-03-19T07:41:31;6.40;;;2.50;;
50976;SDS011;36992;48.200;12.418;2023-03-19T07:43:58;5.47;;;2.45;;
50976;SDS011;36992;48.200;12.418;2023-03-19T07:46:24;5.40;;;3.13;;
50976;SDS011;36992;48.200;12.418;2023-03-19T07:48:52;6.53;;;3.10;;
50976;SDS011;36992;48.200;12.418;2023-03-19T07:51:19;8.38;;;3.55;;
50976;SDS011;36992;48.200;12.418;2023-03-19T07:53:47;6.30;;;2.78;;
50976;SDS011;36992;48.200;12.418;2023-03-19T07:56:13;6.00;;;2.78;;
50976;SDS011;36992;48.200;12.418;2023-03-19T07:58:40;6.40;;;2.80;;
50976;SDS011;36992;48.200;12.418;2023-03-19T08:01:06;4.40;;;2.30;;
50976;SDS011;36992;48.200;12.418;2023-03-19T08:03:33;5.90;;;2.80;;
50976;SDS011;36992;48.200;12.418;2023-03-19T08:05:59;4.72;;;2.80;;
50976;SDS011;36992;48.200;12.418;2023-03-19T08:08:26;5.10;;;2.47;;
50976;SDS011;36992;48.200;12.418;2023-03-19T08:10:54;4.85;;;2.35;;
50976;SDS011;36992;48.200;12.418;2023-03-19T08:13:20;5.10;;;2.42;;
50976;SDS011;36992;48.200;12.418;2023-03-19T08:15:47;5.85;;;2.67;;
50976;SDS011;36992;48.200;12.418;2023-03-19T08:18:14;6.03;;;2.15;;
50976;SDS011;36992;48.200;12.418;2023-03-19T08:20:41;4.47;;;2.33;;
50976;SDS011;36992;48.200;12.418;2023-03-19T08:23:09;5.28;;;2.75;;
50976;SDS011;36992;48.200;12.418;2023-03-19T08:25:36;4.85;;;2.42;;
50976;SDS011;36992;48.200;12.418;2023-03-19T08:28:04;7.50;;;3.58;;
50976;SDS011;36992;48.200;12.418;2023-03-19T08:30:31;8.73;;;4.70;;
50976;SDS011;36992;48.200;12.418;2023-03-19T08:32:57;8.50;;;4.70;;
50976;SDS011;36992;48.200;12.418;2023-03-19T08:35:24;9.23;;;4.18;;
50976;SDS011;36992;48.200;12.418;2023-03-19T08:37:52;9.10;;;4.68;;
50976;SDS011;36992;48.200;12.418;2023-03-19T08:40:19;9.02;;;5.00;;
50976;SDS011;36992;48.200;12.418;2023-03-19T08:42:46;7.28;;;3.92;;
50976;SDS011;36992;48.200;12.418;2023-03-19T08:45:14;6.95;;;4.03;;
50976;SDS011;36992;48.200;12.418;2023-03-19T08:47:41;8.32;;;4.32;;
50976;SDS011;36992;48.200;12.418;2023-03-19T08:50:09;8.27;;;4.28;;
50976;SDS011;36992;48.200;12.418;2023-03-19T08:52:36;7.35;;;3.72;;
50976;SDS011;36992;48.200;12.418;2023-03-19T08:55:03;10.15;;;3.97;;
50976;SDS011;36992;48.200;12.418;2023-03-19T08:57:31;12.60;;;4.88;;
50976;SDS011;36992;48.200;12.418;2023-03-19T08:59:58;7.78;;;4.55;;
50976;SDS011;36992;48.200;12.418;2023-03-19T09:02:26;8.25;;;4.43;;
50976;SDS011;36992;48.200;12.418;2023-03-19T09:04:53;8.00;;;5.00;;
50976;SDS011;36992;48.200;12.418;2023-03-19T09:07:19;7.28;;;4.00;;
50976;SDS011;36992;48.200;12.418;2023-03-19T09:09:46;9.45;;;3.90;;
50976;SDS011;36992;48.200;12.418;2023-03-19T09:12:14;8.18;;;4.63;;
50976;SDS011;36992;48.200;12.418;2023-03-19T09:14:42;7.47;;;4.30;;
50976;SDS011;36992;48.200;12.418;2023-03-19T09:17:09;8.88;;;4.30;;
50976;SDS011;36992;48.200;12.418;2023-03-19T09:19:38;9.30;;;4.53;;
50976;SDS011;36992;48.200;12.418;2023-03-19T09:22:05;9.02;;;4.57;;
50976;SDS011;36992;48.200;12.418;2023-03-19T09:24:32;6.72;;;3.42;;
50976;SDS011;36992;48.200;12.418;2023-03-19T09:26:58;7.05;;;4.10;;
50976;SDS011;36992;48.200;12.418;2023-03-19T09:29:25;6.85;;;3.45;;
50976;SDS011;36992;48.200;12.418;2023-03-19T09:31:51;7.97;;;3.50;;
50976;SDS011;36992;48.200;12.418;2023-03-19T09:34:18;10.02;;;4.28;;
50976;SDS011;36992;48.200;12.418;2023-03-19T09:36:46;6.75;;;3.53;;
50976;SDS011;36992;48.200;12.418;2023-03-19T09:39:12;5.70;;;2.80;;
50976;SDS011;36992;48.200;12.418;2023-03-19T09:41:40;7.38;;;2.83;;
50976;SDS011;36992;48.200;12.418;2023-03-19T09:46:45;5.63;;;2.75;;
50976;SDS011;36992;48.200;12.418;2023-03-19T09:49:20;5.45;;;2.97;;
50976;SDS011;36992;48.200;12.418;2023-03-19T09:51:50;7.97;;;3.40;;
50976;SDS011;36992;48.200;12.418;2023-03-19T09:54:24;6.07;;;3.58;;
50976;SDS011;36992;48.200;12.418;2023-03-19T09:56:53;4.50;;;2.70;;
50976;SDS011;36992;48.200;12.418;2023-03-19T09:59:21;6.75;;;2.95;;
50976;SDS011;36992;48.200;12.418;2023-03-19T10:01:51;4.82;;;2.85;;
50976;SDS011;36992;48.200;12.418;2023-03-19T10:04:29;5.13;;;2.47;;
50976;SDS011;36992;48.200;12.418;2023-03-19T10:07:06;4.93;;;2.40;;
50976;SDS011;36992;48.200;12.418;2023-03-19T10:09:44;5.10;;;2.75;;
50976;SDS011;36992;48.200;12.418;2023-03-19T10:12:21;6.15;;;2.95;;
50976;SDS011;36992;48.200;12.418;2023-03-19T10:14:59;5.85;;;2.60;;
50976;SDS011;36992;48.200;12.418;2023-03-19T10:17:36;4.75;;;2.28;;
50976;SDS011;36992;48.200;12.418;2023-03-19T10:20:07;6.82;;;2.22;;
50976;SDS011;36992;48.200;12.418;2023-03-19T10:22:43;4.78;;;2.15;;
50976;SDS011;36992;48.200;12.418;2023-03-19T10:25:14;5.15;;;2.10;;
50976;SDS011;36992;48.200;12.418;2023-03-19T10:27:46;6.78;;;2.05;;
50976;SDS011;36992;48.200;12.418;2023-03-19T10:30:19;5.70;;;2.53;;
50976;SDS011;36992;48.200;12.418;2023-03-19T10:32:47;6.68;;;2.63;;
50976;SDS011;36992;48.200;12.418;2023-03-19T10:35:19;3.30;;;1.60;;
50976;SDS011;36992;48.200;12.418;2023-03-19T10:37:50;3.55;;;1.90;;
50976;SDS011;36992;48.200;12.418;2023-03-19T10:40:20;5.32;;;1.80;;
50976;SDS011;36992;48.200;12.418;2023-03-19T10:43:02;4.88;;;1.63;;
50976;SDS011;36992;48.200;12.418;2023-03-19T10:45:32;4.55;;;1.45;;
50976;SDS011;36992;48.200;12.418;2023-03-19T10:48:00;3.65;;;1.95;;
50976;SDS011;36992;48.200;12.418;2023-03-19T10:50:29;3.63;;;2.22;;
50976;SDS011;36992;48.200;12.418;2023-03-19T10:53:06;4.45;;;2.58;;
50976;SDS011;36992;48.200;12.418;2023-03-19T10:55:52;3.95;;;1.90;;
50976;SDS011;36992;48.200;12.418;2023-03-19T10:58:21;2.88;;;1.23;;
50976;SDS011;36992;48.200;12.418;2023-03-19T11:00:54;3.40;;;1.45;;
50976;SDS011;36992;48.200;12.418;2023-03-19T11:03:28;3.25;;;1.73;;
50976;SDS011;36992;48.200;12.418;2023-03-19T11:06:02;4.20;;;1.60;;
50976;SDS011;36992;48.200;12.418;2023-03-19T11:08:34;2.78;;;1.30;;
50976;SDS011;36992;48.200;12.418;2023-03-19T11:11:01;3.15;;;1.60;;
50976;SDS011;36992;48.200;12.418;2023-03-19T11:13:29;4.40;;;1.35;;
50976;SDS011;36992;48.200;12.418;2023-03-19T11:15:58;4.15;;;1.65;;
50976;SDS011;36992;48.200;12.418;2023-03-19T11:18:27;4.50;;;1.80;;
50976;SDS011;36992;48.200;12.418;2023-03-19T11:20:55;2.67;;;1.50;;
50976;SDS011;36992;48.200;12.418;2023-03-19T11:23:26;3.55;;;1.20;;
50976;SDS011;36992;48.200;12.418;2023-03-19T11:25:57;2.85;;;1.20;;
50976;SDS011;36992;48.200;12.418;2023-03-19T11:28:27;3.65;;;1.20;;
50976;SDS011;36992;48.200;12.418;2023-03-19T11:30:59;3.00;;;1.27;;
50976;SDS011;36992;48.200;12.418;2023-03-19T11:33:42;1.50;;;0.70;;
50976;SDS011;36992;48.200;12.418;2023-03-19T11:36:17;2.78;;;1.40;;
50976;SDS011;36992;48.200;12.418;2023-03-19T11:38:51;5.07;;;1.10;;
50976;SDS011;36992;48.200;12.418;2023-03-19T11:41:32;3.03;;;1.17;;
50976;SDS011;36992;48.200;12.418;2023-03-19T11:44:12;2.92;;;1.20;;
50976;SDS011;36992;48.200;12.418;2023-03-19T11:46:42;3.10;;;1.40;;
50976;SDS011;36992;48.200;12.418;2023-03-19T11:52:12;2.28;;;0.82;;
50976;SDS011;36992;48.200;12.418;2023-03-19T11:54:47;2.88;;;1.10;;
50976;SDS011;36992;48.200;12.418;2023-03-19T11:57:28;2.38;;;1.02;;
50976;SDS011;36992;48.200;12.418;2023-03-19T12:00:12;2.47;;;0.88;;
50976;SDS011;36992;48.200;12.418;2023-03-19T12:02:57;4.30;;;1.10;;
50976;SDS011;36992;48.200;12.418;2023-03-19T12:06:03;2.42;;;0.88;;
50976;SDS011;36992;48.200;12.418;2023-03-19T12:08:43;4.22;;;1.10;;
50976;SDS011;36992;48.200;12.418;2023-03-19T12:11:16;2.67;;;1.08;;
50976;SDS011;36992;48.200;12.418;2023-03-19T12:13:59;2.45;;;1.08;;
50976;SDS011;36992;48.200;12.418;2023-03-19T12:16:35;1.67;;;0.93;;
50976;SDS011;36992;48.200;12.418;2023-03-19T12:19:17;2.63;;;0.82;;
50976;SDS011;36992;48.200;12.418;2023-03-19T12:22:02;2.97;;;1.02;;
50976;SDS011;36992;48.200;12.418;2023-03-19T12:24:52;1.73;;;0.90;;
50976;SDS011;36992;48.200;12.418;2023-03-19T12:27:30;2.75;;;0.60;;
50976;SDS011;36992;48.200;12.418;2023-03-19T12:30:03;1.55;;;0.80;;
50976;SDS011;36992;48.200;12.418;2023-03-19T12:32:44;2.28;;;0.52;;
50976;SDS011;36992;48.200;12.418;2023-03-19T12:35:25;4.10;;;1.02;;
50976;SDS011;36992;48.200;12.418;2023-03-19T12:37:58;2.70;;;0.93;;
50976;SDS011;36992;48.200;12.418;2023-03-19T12:40:31;3.10;;;1.50;;
50976;SDS011;36992;48.200;12.418;2023-03-19T12:43:03;2.63;;;1.00;;
50976;SDS011;36992;48.200;12.418;2023-03-19T12:45:35;3.38;;;1.20;;
50976;SDS011;36992;48.200;12.418;2023-03-19T12:48:06;2.85;;;1.17;;
50976;SDS011;36992;48.200;12.418;2023-03-19T12:50:37;4.10;;;1.15;;
50976;SDS011;36992;48.200;12.418;2023-03-19T12:53:08;2.60;;;1.15;;
50976;SDS011;36992;48.200;12.418;2023-03-19T12:55:54;3.00;;;0.70;;
50976;SDS011;36992;48.200;12.418;2023-03-19T12:58:28;3.17;;;1.55;;
50976;SDS011;36992;48.200;12.418;2023-03-19T13:01:05;1.80;;;0.80;;
50976;SDS011;36992;48.200;12.418;2023-03-19T13:03:37;2.42;;;0.82;;
50976;SDS011;36992;48.200;12.418;2023-03-19T13:06:11;3.88;;;0.55;;
50976;SDS011;36992;48.200;12.418;2023-03-19T13:08:46;2.70;;;1.02;;
50976;SDS011;36992;48.200;12.418;2023-03-19T13:11:19;4.78;;;1.00;;
50976;SDS011;36992;48.200;12.418;2023-03-19T13:13:59;2.08;;;0.73;;
50976;SDS011;36992;48.200;12.418;2023-03-19T13:16:36;2.58;;;0.80;;
50976;SDS011;36992;48.200;12.418;2023-03-19T13:19:12;1.25;;;0.60;;
50976;SDS011;36992;48.200;12.418;2023-03-19T13:21:45;2.83;;;0.60;;
50976;SDS011;36992;48.200;12.418;2023-03-19T13:24:19;1.75;;;0.70;;
50976;SDS011;36992;48.200;12.418;2023-03-19T13:26:50;2.45;;;0.80;;
50976;SDS011;36992;48.200;12.418;2023-03-19T13:29:19;1.52;;;0.50;;
50976;SDS011;36992;48.200;12.418;2023-03-19T13:31:49;1.77;;;0.60;;
50976;SDS011;36992;48.200;12.418;2023-03-19T13:34:18;2.13;;;0.70;;
50976;SDS011;36992;48.200;12.418;2023-03-19T13:36:47;1.83;;;0.50;;
50976;SDS011;36992;48.200;12.418;2023-03-19T13:39:18;3.95;;;1.05;;
50976;SDS011;36992;48.200;12.418;2023-03-19T13:41:51;1.80;;;0.60;;
50976;SDS011;36992;48.200;12.418;2023-03-19T13:44:27;2.05;;;0.77;;
50976;SDS011;36992;48.200;12.418;2023-03-19T13:47:01;3.05;;;0.85;;
50976;SDS011;36992;48.200;12.418;2023-03-19T13:49:29;3.90;;;0.63;;
50976;SDS011;36992;48.200;12.418;2023-03-19T13:52:00;2.65;;;0.95;;
50976;SDS011;36992;48.200;12.418;2023-03-19T13:54:50;3.58;;;0.77;;
50976;SDS011;36992;48.200;12.418;2023-03-19T13:57:31;2.45;;;0.70;;
50976;SDS011;36992;48.200;12.418;2023-03-19T14:03:23;2.90;;;0.60;;
50976;SDS011;36992;48.200;12.418;2023-03-19T14:05:52;2.08;;;0.98;;
50976;SDS011;36992;48.200;12.418;2023-03-19T14:08:21;1.80;;;0.70;;
50976;SDS011;36992;48.200;12.418;2023-03-19T14:10:50;3.67;;;0.50;;
50976;SDS011;36992;48.200;12.418;2023-03-19T14:13:22;2.17;;;0.40;;
50976;SDS011;36992;48.200;12.418;2023-03-19T14:15:59;1.10;;;0.40;;
50976;SDS011;36992;48.200;12.418;2023-03-19T14:18:31;2.60;;;0.80;;
50976;SDS011;36992;48.200;12.418;2023-03-19T14:20:59;3.53;;;0.50;;
50976;SDS011;36992;48.200;12.418;2023-03-19T14:23:29;2.22;;;0.65;;
50976;SDS011;36992;48.200;12.418;2023-03-19T14:26:00;2.78;;;0.60;;
50976;SDS011;36992;48.200;12.418;2023-03-19T14:28:35;1.80;;;0.60;;
50976;SDS011;36992;48.200;12.418;2023-03-19T14:31:06;2.45;;;0.50;;
50976;SDS011;36992;48.200;12.418;2023-03-19T14:33:47;2.78;;;0.70;;
50976;SDS011;36992;48.200;12.418;2023-03-19T14:36:18;2.20;;;0.63;;
50976;SDS011;36992;48.200;12.418;2023-03-19T14:38:48;2.10;;;0.57;;
50976;SDS011;36992;48.200;12.418;2023-03-19T14:41:18;1.65;;;0.60;;
50976;SDS011;36992;48.200;12.418;2023-03-19T14:44:13;2.35;;;0.45;;
50976;SDS011;36992;48.200;12.418;2023-03-19T14:47:19;1.58;;;0.50;;
50976;SDS011;36992;48.200;12.418;2023-03-19T14:53:01;3.55;;;1.23;;
50976;SDS011;36992;48.200;12.418;2023-03-19T14:55:35;4.50;;;0.75;;
50976;SDS011;36992;48.200;12.418;2023-03-19T14:58:03;1.60;;;0.57;;
50976;SDS011;36992;48.200;12.418;2023-03-19T15:00:36;2.22;;;0.50;;
50976;SDS011;36992;48.200;12.418;2023-03-19T15:03:12;1.38;;;0.52;;